Time;durP1;ratioP1;P1;durP2;ratioP2;P2;SDS_P1;SDS_P2;PMS_P1;PMS_P2;Temp;Humidity;BMP_temperature;BMP_pressure;BME280_temperature;BME280_humidity;BME280_pressure;Samples;Min_cycle;Max_cycle;Signal;HPM_P1;HPM_P2
2022/10/21 00:00:36;;;;;;;18.85;9.32;;;12.30;99.90;;;;;;5098304;28;20040;-72
2022/10/21 00:03:05;;;;;;;17.27;9.40;;;12.40;99.90;;;;;;5087443;28;20059;-72
2022/10/21 00:05:31;;;;;;;15.73;9.07;;;12.40;99.90;;;;;;5092246;28;20221;-72
2022/10/21 00:07:57;;;;;;;19.08;9.23;;;12.40;99.90;;;;;;5091839;28;20044;-72
2022/10/21 00:10:23;;;;;;;18.53;8.50;;;12.30;99.90;;;;;;5092082;28;20036;-72
2022/10/21 00:12:49;;;;;;;19.92;9.63;;;12.40;99.90;;;;;;5096866;28;20054;-72
2022/10/21 00:15:14;;;;;;;19.25;8.48;;;12.30;99.90;;;;;;5080819;28;20126;-72
2022/10/21 00:17:42;;;;;;;17.27;8.88;;;12.30;99.90;;;;;;5082460;28;20485;-72
2022/10/21 00:20:10;;;;;;;21.85;9.50;;;12.30;99.90;;;;;;5085960;28;20098;-71
2022/10/21 00:22:36;;;;;;;16.48;8.65;;;12.30;99.90;;;;;;5089725;28;20031;-72
2022/10/21 00:25:06;;;;;;;20.58;9.63;;;12.30;99.90;;;;;;5091676;28;20086;-72
2022/10/21 00:27:32;;;;;;;15.90;8.98;;;12.30;99.90;;;;;;5069660;28;20426;-71
2022/10/21 00:29:57;;;;;;;17.02;8.93;;;12.30;99.90;;;;;;5090254;28;20047;-72
2022/10/21 00:32:23;;;;;;;18.00;9.05;;;12.30;99.90;;;;;;5085405;28;20063;-72
2022/10/21 00:34:49;;;;;;;18.80;9.48;;;12.30;99.90;;;;;;5076786;28;20043;-72
2022/10/21 00:37:16;;;;;;;17.50;9.77;;;12.30;99.90;;;;;;5092701;28;20043;-71
2022/10/21 00:39:42;;;;;;;16.42;8.48;;;12.30;99.90;;;;;;5090235;28;20036;-71
2022/10/21 00:42:17;;;;;;;17.50;9.60;;;12.30;99.90;;;;;;5085044;28;20043;-71
2022/10/21 00:45:00;;;;;;;17.52;8.70;;;12.30;99.90;;;;;;5085677;28;20131;-71
2022/10/21 00:47:25;;;;;;;19.10;8.65;;;12.20;99.90;;;;;;5088088;28;20173;-71
2022/10/21 00:50:03;;;;;;;15.02;9.65;;;12.20;99.90;;;;;;5091307;28;20525;-71
2022/10/21 00:52:35;;;;;;;18.60;8.93;;;12.20;99.90;;;;;;5089033;28;20090;-71
2022/10/21 00:55:04;;;;;;;16.80;8.65;;;12.20;99.90;;;;;;5086205;28;20396;-71
2022/10/21 00:57:31;;;;;;;18.88;10.30;;;12.20;99.90;;;;;;5099913;28;20524;-71
2022/10/21 01:00:00;;;;;;;18.92;9.43;;;12.20;99.90;;;;;;5092272;28;20052;-71
2022/10/21 01:02:27;;;;;;;19.15;8.60;;;12.30;99.90;;;;;;5086648;28;20394;-71
2022/10/21 01:04:57;;;;;;;19.77;10.15;;;12.20;99.90;;;;;;5102266;28;20177;-71
2022/10/21 01:07:23;;;;;;;16.25;9.60;;;12.20;99.90;;;;;;5089418;28;20085;-72
2022/10/21 01:09:49;;;;;;;15.23;9.23;;;12.20;99.90;;;;;;5103147;28;20055;-72
2022/10/21 01:12:22;;;;;;;21.50;9.80;;;12.20;99.90;;;;;;5084476;28;20032;-72
2022/10/21 01:15:14;;;;;;;19.55;9.25;;;12.20;99.90;;;;;;5083978;28;20035;-70
2022/10/21 01:18:14;;;;;;;20.70;10.38;;;12.20;99.90;;;;;;5085588;28;20043;-71
2022/10/21 01:21:01;;;;;;;18.52;9.25;;;12.10;99.90;;;;;;5049802;28;20283;-71
2022/10/21 01:23:56;;;;;;;22.50;8.97;;;12.20;99.90;;;;;;5092324;28;20036;-72
2022/10/21 01:26:36;;;;;;;17.45;9.35;;;12.10;99.90;;;;;;5086748;28;20036;-71
2022/10/21 01:29:28;;;;;;;14.05;9.27;;;12.20;99.90;;;;;;5083936;28;20123;-71
2022/10/21 01:32:06;;;;;;;17.88;9.07;;;12.20;99.90;;;;;;5081644;28;20040;-71
2022/10/21 01:34:44;;;;;;;21.58;10.40;;;12.20;99.90;;;;;;5094454;28;20024;-75
2022/10/21 01:37:34;;;;;;;18.83;8.85;;;12.20;99.90;;;;;;5090241;28;20044;-72
2022/10/21 01:40:05;;;;;;;17.70;8.65;;;12.20;99.90;;;;;;5052376;28;20447;-72
2022/10/21 01:42:34;;;;;;;15.45;8.73;;;12.20;99.90;;;;;;5095120;28;20147;-72
2022/10/21 01:45:18;;;;;;;17.40;9.38;;;12.20;99.90;;;;;;5097378;28;20043;-71
2022/10/21 01:47:52;;;;;;;20.90;9.80;;;12.30;99.90;;;;;;5091495;28;20367;-71
2022/10/21 01:50:24;;;;;;;15.10;8.65;;;12.30;99.90;;;;;;5097911;28;20032;-71
2022/10/21 01:52:55;;;;;;;14.63;9.30;;;12.30;99.90;;;;;;5101293;28;20126;-71
2022/10/21 01:55:24;;;;;;;18.98;9.40;;;12.30;99.90;;;;;;5095784;28;20124;-71
2022/10/21 01:58:07;;;;;;;17.27;9.18;;;12.30;99.90;;;;;;5097767;28;20052;-71
2022/10/21 02:00:35;;;;;;;15.80;8.73;;;12.30;99.90;;;;;;5097409;28;20124;-71
2022/10/21 02:03:04;;;;;;;16.98;9.02;;;12.40;99.90;;;;;;5092092;28;20665;-71
2022/10/21 02:05:35;;;;;;;16.92;9.43;;;12.40;99.90;;;;;;5103224;28;20455;-71
2022/10/21 02:08:02;;;;;;;20.42;9.25;;;12.40;99.90;;;;;;5097295;28;20161;-71
2022/10/21 02:10:35;;;;;;;15.63;9.07;;;12.40;99.90;;;;;;5093725;28;20477;-71
2022/10/21 02:13:06;;;;;;;16.23;9.10;;;12.50;99.90;;;;;;5087541;28;20051;-71
2022/10/21 02:15:36;;;;;;;16.75;8.70;;;12.50;99.90;;;;;;5101166;28;20036;-71
2022/10/21 02:18:08;;;;;;;22.42;9.10;;;12.50;99.90;;;;;;5091976;28;20040;-71
2022/10/21 02:20:41;;;;;;;17.85;9.38;;;12.50;99.90;;;;;;5088380;28;20043;-71
2022/10/21 02:23:10;;;;;;;22.45;10.27;;;12.60;99.90;;;;;;5098536;28;20044;-71
2022/10/21 02:25:39;;;;;;;16.42;9.15;;;12.60;99.90;;;;;;5079008;28;20193;-71
2022/10/21 02:28:06;;;;;;;19.20;9.35;;;12.60;99.90;;;;;;5089886;28;20097;-71
2022/10/21 02:30:42;;;;;;;21.23;10.95;;;12.70;99.90;;;;;;5095213;28;20423;-71
2022/10/21 02:33:18;;;;;;;22.77;10.20;;;12.70;99.90;;;;;;5089053;28;20043;-71
2022/10/21 02:35:56;;;;;;;18.35;9.15;;;12.70;99.90;;;;;;5097086;28;20086;-71
2022/10/21 02:38:53;;;;;;;18.13;8.52;;;12.70;99.90;;;;;;5089365;28;20044;-72
2022/10/21 02:41:22;;;;;;;22.63;9.55;;;12.80;99.90;;;;;;5095745;28;20043;-71
2022/10/21 02:43:50;;;;;;;20.60;9.95;;;12.70;99.90;;;;;;5094984;22;20416;-72
2022/10/21 02:46:16;;;;;;;18.90;9.20;;;12.80;99.90;;;;;;5088033;28;20047;-73
2022/10/21 02:48:46;;;;;;;20.65;9.95;;;12.90;99.90;;;;;;5092471;28;20040;-73
2022/10/21 02:51:13;;;;;;;16.75;8.32;;;12.80;99.90;;;;;;5087605;28;20040;-73
2022/10/21 02:53:39;;;;;;;18.20;8.68;;;12.90;99.90;;;;;;5071550;28;20119;-73
2022/10/21 02:56:05;;;;;;;17.42;8.27;;;12.90;99.90;;;;;;5071688;28;20048;-73
2022/10/21 02:58:31;;;;;;;15.90;8.13;;;12.90;99.90;;;;;;5078260;28;20036;-73
2022/10/21 03:00:57;;;;;;;14.07;6.82;;;12.90;99.90;;;;;;5073484;28;20040;-73
2022/10/21 03:03:23;;;;;;;12.43;7.20;;;13.00;99.90;;;;;;5077776;28;20043;-73
2022/10/21 03:05:49;;;;;;;13.70;6.80;;;13.10;99.90;;;;;;5065702;28;20423;-73
2022/10/21 03:08:15;;;;;;;11.77;6.20;;;13.20;99.90;;;;;;5071612;28;20066;-72
2022/10/21 03:10:41;;;;;;;11.75;6.03;;;13.30;99.90;;;;;;5054146;28;20429;-73
2022/10/21 03:13:07;;;;;;;13.37;6.77;;;13.30;99.90;;;;;;5073867;28;20078;-73
2022/10/21 03:15:32;;;;;;;15.13;6.23;;;13.40;99.90;;;;;;5078030;28;20124;-72
2022/10/21 03:17:58;;;;;;;13.67;6.10;;;13.50;99.90;;;;;;5079655;28;20289;-73
2022/10/21 03:20:23;;;;;;;10.67;5.67;;;13.60;99.90;;;;;;5079122;28;20811;-73
2022/10/21 03:22:49;;;;;;;11.43;5.80;;;13.60;99.90;;;;;;5071608;28;20032;-73
2022/10/21 03:25:15;;;;;;;11.10;5.73;;;13.70;99.90;;;;;;5067245;28;20053;-73
2022/10/21 03:27:41;;;;;;;12.43;5.90;;;13.70;99.90;;;;;;5078811;28;20356;-73
2022/10/21 03:30:08;;;;;;;12.25;6.18;;;13.70;99.90;;;;;;5074618;28;20040;-73
2022/10/21 03:32:34;;;;;;;10.77;5.78;;;13.70;99.90;;;;;;5073594;28;20044;-73
2022/10/21 03:34:59;;;;;;;9.60;5.22;;;13.80;99.90;;;;;;5074169;28;20044;-73
2022/10/21 03:37:25;;;;;;;12.13;6.00;;;13.70;99.90;;;;;;5068401;28;20051;-73
2022/10/21 03:39:51;;;;;;;9.98;5.15;;;13.70;99.90;;;;;;5083569;28;20268;-73
2022/10/21 03:42:17;;;;;;;7.30;5.00;;;13.70;99.90;;;;;;5067257;28;20036;-73
2022/10/21 03:44:42;;;;;;;11.13;5.72;;;13.70;99.90;;;;;;5067156;28;20072;-73
2022/10/21 03:47:08;;;;;;;12.00;5.50;;;13.70;99.90;;;;;;5065049;28;20045;-73
2022/10/21 03:49:34;;;;;;;10.23;5.15;;;13.70;99.90;;;;;;5077682;28;20128;-73
2022/10/21 03:51:59;;;;;;;12.97;5.27;;;13.70;99.90;;;;;;5069527;28;20044;-73
2022/10/21 03:54:25;;;;;;;9.25;5.18;;;13.70;99.90;;;;;;5060975;28;20528;-73
2022/10/21 03:56:51;;;;;;;10.93;5.57;;;13.80;99.90;;;;;;5075425;28;20097;-73
2022/10/21 03:59:17;;;;;;;11.88;5.90;;;13.70;99.90;;;;;;5071110;28;20089;-73
2022/10/21 04:01:42;;;;;;;10.67;6.00;;;13.70;99.90;;;;;;5073217;28;20087;-72
2022/10/21 04:04:08;;;;;;;12.45;6.38;;;13.70;99.90;;;;;;5076618;28;20493;-72
2022/10/21 04:06:34;;;;;;;11.43;6.03;;;13.70;99.90;;;;;;5073271;28;20505;-73
2022/10/21 04:09:00;;;;;;;12.85;6.03;;;13.70;99.90;;;;;;5082558;28;20434;-73
2022/10/21 04:11:25;;;;;;;12.57;5.97;;;13.70;99.90;;;;;;5068605;28;20074;-74
2022/10/21 04:13:51;;;;;;;14.07;6.78;;;13.70;99.90;;;;;;5071035;28;20037;-73
2022/10/21 04:16:19;;;;;;;17.17;6.68;;;13.70;99.90;;;;;;5064665;28;20123;-73
2022/10/21 04:18:45;;;;;;;14.75;7.25;;;13.60;99.90;;;;;;5052133;28;20132;-72
2022/10/21 04:21:11;;;;;;;14.25;7.35;;;13.60;99.90;;;;;;5072484;28;20114;-72
2022/10/21 04:23:37;;;;;;;15.57;7.55;;;13.60;99.90;;;;;;5074254;28;20036;-73
2022/10/21 04:26:06;;;;;;;12.98;7.28;;;13.50;99.90;;;;;;5071017;28;20481;-73
2022/10/21 04:28:32;;;;;;;14.70;7.53;;;13.60;99.90;;;;;;5075077;28;20060;-73
2022/10/21 04:30:58;;;;;;;17.75;7.95;;;13.60;99.90;;;;;;5076754;28;20047;-73
2022/10/21 04:33:24;;;;;;;18.48;8.85;;;13.60;99.90;;;;;;5057212;28;20128;-73
2022/10/21 04:35:50;;;;;;;14.90;7.95;;;13.50;99.90;;;;;;5073025;28;20044;-73
2022/10/21 04:38:15;;;;;;;14.85;7.90;;;13.50;99.90;;;;;;5068031;28;20105;-73
2022/10/21 04:40:41;;;;;;;16.23;8.13;;;13.50;99.90;;;;;;5067744;28;20106;-73
2022/10/21 04:43:06;;;;;;;18.10;7.82;;;13.40;99.90;;;;;;5066145;28;20571;-73
2022/10/21 04:45:32;;;;;;;19.43;8.50;;;13.40;99.90;;;;;;5072587;28;20045;-73
2022/10/21 04:47:58;;;;;;;17.92;8.73;;;13.40;99.90;;;;;;5077807;28;21072;-73
2022/10/21 04:50:24;;;;;;;16.40;9.48;;;13.40;99.90;;;;;;5075173;28;20427;-73
2022/10/21 04:52:49;;;;;;;17.52;8.23;;;13.50;99.90;;;;;;5069198;28;20043;-73
2022/10/21 04:55:15;;;;;;;15.80;7.53;;;13.40;99.90;;;;;;5053649;28;20051;-73
2022/10/21 04:57:41;;;;;;;14.63;7.93;;;13.40;99.90;;;;;;5071790;28;20269;-73
2022/10/21 05:00:08;;;;;;;15.90;8.98;;;13.40;99.90;;;;;;5069159;28;20117;-74
2022/10/21 05:02:34;;;;;;;20.05;8.45;;;13.40;99.90;;;;;;5069425;28;20079;-75
2022/10/21 05:04:59;;;;;;;15.45;8.48;;;13.40;99.90;;;;;;5071217;28;20521;-74
2022/10/21 05:07:25;;;;;;;16.27;9.02;;;13.30;99.90;;;;;;5059406;28;20076;-74
2022/10/21 05:09:51;;;;;;;17.13;9.10;;;13.30;99.90;;;;;;5066036;28;20064;-74
2022/10/21 05:12:16;;;;;;;16.33;9.32;;;13.30;99.90;;;;;;5081587;28;20032;-74
2022/10/21 05:14:42;;;;;;;18.80;8.93;;;13.20;99.90;;;;;;5070093;28;20406;-74
2022/10/21 05:17:08;;;;;;;16.97;8.63;;;13.20;99.90;;;;;;5066618;28;20639;-74
2022/10/21 05:19:33;;;;;;;15.50;8.63;;;13.20;99.90;;;;;;5071174;28;20508;-74
2022/10/21 05:21:59;;;;;;;18.93;9.17;;;13.20;99.90;;;;;;5077420;28;20276;-74
2022/10/21 05:24:24;;;;;;;17.83;8.60;;;13.10;99.90;;;;;;5067323;28;20040;-74
2022/10/21 05:26:51;;;;;;;14.13;7.77;;;13.10;99.90;;;;;;5072864;28;20807;-74
2022/10/21 05:29:17;;;;;;;16.65;9.05;;;13.10;99.90;;;;;;5079097;28;20032;-74
2022/10/21 05:31:43;;;;;;;17.30;8.32;;;13.10;99.90;;;;;;5072352;28;20040;-74
2022/10/21 05:34:08;;;;;;;15.88;8.75;;;13.00;99.90;;;;;;5072933;28;20040;-74
2022/10/21 05:36:34;;;;;;;14.77;8.65;;;13.00;99.90;;;;;;5070387;28;20325;-75
2022/10/21 05:39:00;;;;;;;16.83;9.50;;;13.00;99.90;;;;;;5073655;28;20451;-74
2022/10/21 05:41:26;;;;;;;18.88;9.63;;;13.00;99.90;;;;;;5073739;28;20037;-74
2022/10/21 05:43:51;;;;;;;14.55;8.50;;;13.00;99.90;;;;;;5092293;28;20059;-74
2022/10/21 05:46:17;;;;;;;17.70;9.40;;;13.00;99.90;;;;;;5075707;28;20497;-74
2022/10/21 05:48:43;;;;;;;17.57;8.97;;;12.90;99.90;;;;;;5072894;28;20873;-74
2022/10/21 05:51:08;;;;;;;18.75;9.05;;;13.00;99.90;;;;;;5076747;28;20056;-74
2022/10/21 05:53:34;;;;;;;16.40;9.83;;;12.90;99.90;;;;;;5062005;28;20047;-74
2022/10/21 05:56:05;;;;;;;17.63;9.15;;;12.90;99.90;;;;;;5078419;28;20582;-74
2022/10/21 05:58:32;;;;;;;20.45;8.77;;;12.90;99.90;;;;;;5080621;28;20074;-74
2022/10/21 06:00:59;;;;;;;17.65;9.63;;;12.90;99.90;;;;;;5073548;28;20205;-74
2022/10/21 06:03:28;;;;;;;18.30;8.88;;;12.90;99.90;;;;;;5067751;28;20036;-74
2022/10/21 06:05:55;;;;;;;19.00;9.77;;;12.90;99.90;;;;;;5068602;28;20048;-74
2022/10/21 06:08:21;;;;;;;23.17;9.82;;;12.90;99.90;;;;;;5076786;28;20255;-74
2022/10/21 06:10:47;;;;;;;20.02;9.38;;;12.90;99.90;;;;;;5077953;28;20048;-74
2022/10/21 06:13:13;;;;;;;19.42;10.45;;;12.90;99.90;;;;;;5062495;28;20044;-74
2022/10/21 06:15:38;;;;;;;19.40;10.50;;;12.90;99.90;;;;;;5050703;28;20452;-75
2022/10/21 06:18:04;;;;;;;24.83;10.80;;;12.90;99.90;;;;;;5068662;28;20094;-74
2022/10/21 06:20:30;;;;;;;19.75;10.57;;;12.90;99.90;;;;;;5075640;28;20070;-74
2022/10/21 06:22:58;;;;;;;22.20;10.70;;;12.90;99.90;;;;;;5069475;28;20036;-74
2022/10/21 06:25:24;;;;;;;20.83;9.73;;;13.00;99.90;;;;;;5063583;28;20132;-74
2022/10/21 06:27:51;;;;;;;20.50;9.67;;;12.90;99.90;;;;;;5070447;28;20214;-75
2022/10/21 06:30:17;;;;;;;20.77;10.57;;;12.90;99.90;;;;;;5077675;28;20265;-74
2022/10/21 06:32:43;;;;;;;26.80;11.30;;;12.90;99.90;;;;;;5065552;28;20831;-74
2022/10/21 06:35:08;;;;;;;18.83;10.10;;;12.90;99.90;;;;;;5064688;28;20048;-74
2022/10/21 06:37:37;;;;;;;19.60;9.70;;;12.90;99.90;;;;;;5074296;28;20040;-74
2022/10/21 06:40:03;;;;;;;18.15;9.88;;;12.90;99.90;;;;;;5066762;28;20268;-74
2022/10/21 06:42:29;;;;;;;;;;;12.90;99.90;;;;;;5073345;28;20720;-74
2022/10/21 06:44:55;;;;;;;20.52;9.63;;;12.90;99.90;;;;;;5078749;28;20060;-74
2022/10/21 06:47:20;;;;;;;19.13;9.67;;;12.90;99.90;;;;;;5079185;28;20064;-74
2022/10/21 06:49:46;;;;;;;19.57;9.27;;;12.90;99.90;;;;;;5073327;28;20044;-74
2022/10/21 06:52:12;;;;;;;18.83;9.83;;;12.90;99.90;;;;;;5073310;28;20289;-74
2022/10/21 06:54:37;;;;;;;21.97;10.57;;;12.90;99.90;;;;;;5072667;28;20281;-74
2022/10/21 06:57:03;;;;;;;17.57;9.60;;;12.90;99.90;;;;;;5066588;28;20777;-74
2022/10/21 06:59:29;;;;;;;18.77;10.07;;;12.90;99.90;;;;;;5066917;28;20502;-75
2022/10/21 07:01:55;;;;;;;17.30;9.05;;;12.90;99.90;;;;;;5069178;28;20045;-74
2022/10/21 07:04:20;;;;;;;19.15;9.90;;;12.90;99.90;;;;;;5066450;28;20045;-74
2022/10/21 07:06:47;;;;;;;20.23;9.47;;;12.90;99.90;;;;;;5072955;28;20447;-74
2022/10/21 07:09:14;;;;;;;20.23;9.60;;;12.90;99.90;;;;;;5063557;28;20375;-75
2022/10/21 07:11:40;;;;;;;20.02;9.70;;;12.90;99.90;;;;;;5068105;28;20044;-74
2022/10/21 07:14:06;;;;;;;19.42;9.48;;;12.90;99.90;;;;;;5076141;28;20044;-74
2022/10/21 07:16:36;;;;;;;21.33;9.90;;;12.90;99.90;;;;;;5067043;28;20086;-74
2022/10/21 07:19:02;;;;;;;18.65;9.68;;;12.90;99.90;;;;;;5054267;28;20044;-74
2022/10/21 07:21:29;;;;;;;;;;;12.90;99.90;;;;;;5074723;28;20036;-75
2022/10/21 07:23:56;;;;;;;20.00;8.40;;;12.90;99.90;;;;;;5066302;28;19916;-74
2022/10/21 07:26:22;;;;;;;18.83;9.40;;;13.00;99.90;;;;;;5066587;28;20044;-74
2022/10/21 07:28:49;;;;;;;16.92;9.35;;;13.00;99.90;;;;;;5061984;28;20044;-74
2022/10/21 07:31:16;;;;;;;16.95;8.45;;;13.00;99.90;;;;;;5067254;28;20139;-74
2022/10/21 07:33:42;;;;;;;16.85;9.25;;;13.00;99.90;;;;;;5065921;28;20094;-74
2022/10/21 07:36:20;;;;;;;16.70;9.18;;;13.00;99.90;;;;;;5067006;28;20040;-75
2022/10/21 07:38:48;;;;;;;17.20;8.88;;;13.00;99.90;;;;;;5048498;28;20040;-74
2022/10/21 07:41:23;;;;;;;20.00;10.02;;;13.00;99.90;;;;;;5067688;28;20036;-75
2022/10/21 07:43:50;;;;;;;24.38;9.88;;;13.00;99.90;;;;;;5074533;28;20416;-74
2022/10/21 07:46:16;;;;;;;16.35;8.70;;;13.00;99.90;;;;;;5073341;28;20417;-74
2022/10/21 07:48:42;;;;;;;18.75;8.30;;;13.10;99.90;;;;;;5070844;28;20424;-74
2022/10/21 07:51:11;;;;;;;20.90;9.07;;;13.10;99.90;;;;;;5070622;28;20092;-74
2022/10/21 07:53:37;;;;;;;20.33;9.23;;;13.20;99.90;;;;;;5068619;28;20048;-74
2022/10/21 07:56:14;;;;;;;21.52;8.77;;;13.20;99.90;;;;;;5075127;28;20156;-74
2022/10/21 07:58:41;;;;;;;;;;;13.10;99.90;;;;;;5070314;28;20036;-74
2022/10/21 08:01:09;;;;;;;18.63;8.32;;;13.20;99.90;;;;;;5070888;28;19923;-75
2022/10/21 08:03:34;;;;;;;17.95;8.20;;;13.20;99.90;;;;;;5048934;28;20070;-74
2022/10/21 08:06:01;;;;;;;16.52;9.02;;;13.20;99.90;;;;;;5087200;28;20039;-75
2022/10/21 08:08:27;;;;;;;;;;;13.20;99.90;;;;;;5076326;28;20123;-74
2022/10/21 08:10:53;;;;;;;18.67;8.95;;;13.20;99.90;;;;;;5065434;28;20003;-74
2022/10/21 08:13:19;;;;;;;17.42;8.35;;;13.30;99.90;;;;;;5065867;28;20044;-74
2022/10/21 08:15:47;;;;;;;14.05;8.32;;;13.30;99.90;;;;;;5063650;28;20568;-74
2022/10/21 08:18:13;;;;;;;20.00;9.68;;;13.30;99.90;;;;;;5065402;28;20047;-74
2022/10/21 08:20:43;;;;;;;16.40;7.53;;;13.30;99.90;;;;;;5076438;28;20040;-74
2022/10/21 08:23:10;;;;;;;14.82;7.72;;;13.40;99.90;;;;;;5065465;28;20036;-75
2022/10/21 08:25:35;;;;;;;17.25;7.90;;;13.40;99.90;;;;;;5069710;28;20051;-75
2022/10/21 08:28:02;;;;;;;15.40;8.27;;;13.40;99.90;;;;;;5078901;28;20050;-74
2022/10/21 08:30:31;;;;;;;18.50;8.73;;;13.40;99.90;;;;;;5062972;28;20123;-75
2022/10/21 08:32:58;;;;;;;17.45;8.23;;;13.50;99.90;;;;;;5040646;28;20482;-74
2022/10/21 08:35:25;;;;;;;15.75;8.77;;;13.50;99.90;;;;;;5070149;28;20063;-74
2022/10/21 08:37:51;;;;;;;17.73;8.68;;;13.50;99.90;;;;;;5066330;28;20044;-74
2022/10/21 08:40:17;;;;;;;20.58;8.48;;;13.50;99.90;;;;;;5047429;28;20453;-74
2022/10/21 08:45:37;;;;;;;18.30;8.77;;;13.60;99.90;;;;;;5085169;28;20048;-71
2022/10/21 08:48:09;;;;;;;17.75;8.48;;;13.60;99.90;;;;;;5086828;28;20079;-72
2022/10/21 08:50:47;;;;;;;18.15;7.55;;;13.60;99.90;;;;;;5085039;28;20040;-71
2022/10/21 08:53:21;;;;;;;19.23;8.07;;;13.70;99.90;;;;;;5106758;28;20043;-72
2022/10/21 08:55:47;;;;;;;12.93;7.40;;;13.70;99.90;;;;;;5107203;28;20117;-71
2022/10/21 08:58:23;;;;;;;14.60;7.55;;;13.70;99.90;;;;;;5105091;28;20043;-71
2022/10/21 09:00:55;;;;;;;17.77;8.15;;;13.80;99.90;;;;;;5106764;28;20107;-71
2022/10/21 09:03:57;;;;;;;14.27;7.63;;;13.80;99.90;;;;;;5104926;28;20042;-72
2022/10/21 09:06:56;;;;;;;15.02;7.93;;;13.80;99.90;;;;;;5064138;28;20041;-71
2022/10/21 09:09:22;;;;;;;15.20;8.02;;;13.80;99.90;;;;;;5054802;28;20143;-72
2022/10/21 09:11:54;;;;;;;18.63;7.75;;;13.90;99.90;;;;;;5070837;28;20067;-72
2022/10/21 09:14:42;;;;;;;14.38;7.60;;;13.90;99.90;;;;;;5105151;28;20066;-71
2022/10/21 09:17:31;;;;;;;16.48;7.63;;;14.00;99.90;;;;;;5106447;28;20051;-72
2022/10/21 09:20:16;;;;;;;14.40;7.60;;;14.00;99.90;;;;;;5105263;28;20162;-71
2022/10/21 09:23:12;;;;;;;19.70;7.30;;;14.10;99.90;;;;;;5106027;28;20047;-71
2022/10/21 09:26:01;;;;;;;19.25;8.45;;;14.10;99.90;;;;;;5105995;28;20070;-72
2022/10/21 09:28:27;;;;;;;15.23;7.18;;;14.20;99.90;;;;;;5106338;28;20127;-71
2022/10/21 09:30:54;;;;;;;16.45;7.57;;;14.20;99.90;;;;;;5106471;28;20035;-72
2022/10/21 09:33:30;;;;;;;;;;;14.20;99.90;;;;;;5097932;28;20079;-71
2022/10/21 09:36:17;;;;;;;14.68;6.57;;;14.30;99.90;;;;;;5085749;28;19939;-71
2022/10/21 09:39:00;;;;;;;11.68;6.20;;;14.30;99.90;;;;;;5084435;28;20070;-71
2022/10/21 09:41:41;;;;;;;14.85;6.47;;;14.30;99.90;;;;;;5083890;28;20147;-72
2022/10/21 09:44:15;;;;;;;16.85;6.88;;;14.40;99.90;;;;;;5099147;28;20031;-72
2022/10/21 09:46:44;;;;;;;15.60;6.60;;;14.40;99.90;;;;;;5104968;28;20197;-72
2022/10/21 09:49:20;;;;;;;13.85;6.72;;;14.50;99.90;;;;;;5104765;28;20115;-72
2022/10/21 09:51:46;;;;;;;12.40;6.20;;;14.50;99.90;;;;;;5105790;28;20043;-72
2022/10/21 09:54:24;;;;;;;13.18;6.50;;;14.50;99.90;;;;;;5106047;28;20508;-72
2022/10/21 09:57:10;;;;;;;13.45;7.05;;;14.60;99.90;;;;;;5087374;28;20442;-71
2022/10/21 09:59:49;;;;;;;18.52;7.32;;;14.50;99.90;;;;;;5087926;28;20039;-71
2022/10/21 10:02:22;;;;;;;15.60;6.75;;;14.60;99.90;;;;;;5097650;28;20428;-71
2022/10/21 10:04:48;;;;;;;14.93;6.80;;;14.60;99.90;;;;;;5088468;28;20486;-72
2022/10/21 10:07:25;;;;;;;14.82;7.75;;;14.60;99.90;;;;;;5089169;28;20347;-72
2022/10/21 10:09:51;;;;;;;13.52;6.10;;;14.70;99.90;;;;;;5088144;28;20044;-72
2022/10/21 10:12:25;;;;;;;12.32;5.97;;;14.70;99.90;;;;;;5095401;28;20032;-72
2022/10/21 10:14:51;;;;;;;12.65;6.43;;;14.70;99.90;;;;;;5108348;28;20100;-71
2022/10/21 10:17:18;;;;;;;;;;;14.70;99.90;;;;;;5094523;28;20185;-71
2022/10/21 10:20:04;;;;;;;12.13;6.30;;;14.70;99.90;;;;;;5091743;28;20014;-72
2022/10/21 10:22:36;;;;;;;13.50;5.95;;;14.80;99.90;;;;;;5107195;28;20075;-71
2022/10/21 10:25:10;;;;;;;18.42;5.63;;;14.80;99.90;;;;;;5088201;28;20353;-72
2022/10/21 10:27:53;;;;;;;13.55;6.55;;;14.80;99.90;;;;;;5087858;28;20608;-72
2022/10/21 10:30:21;;;;;;;11.25;5.78;;;14.80;99.90;;;;;;5087615;28;20105;-72
2022/10/21 10:32:49;;;;;;;13.43;6.07;;;14.80;99.90;;;;;;5091056;28;20354;-72
2022/10/21 10:35:28;;;;;;;12.25;5.82;;;14.90;99.90;;;;;;5092469;28;20063;-71
2022/10/21 10:37:57;;;;;;;11.98;6.03;;;14.90;99.90;;;;;;5091234;28;20039;-72
2022/10/21 10:40:30;;;;;;;13.32;6.53;;;14.90;99.90;;;;;;5107231;28;20086;-71
2022/10/21 10:43:23;;;;;;;10.65;5.28;;;14.90;99.90;;;;;;5107074;28;20039;-72
2022/10/21 10:45:55;;;;;;;10.70;5.43;;;14.90;99.90;;;;;;5107554;28;20128;-71
2022/10/21 10:48:49;;;;;;;10.50;5.90;;;14.90;99.90;;;;;;5107456;28;20104;-72
2022/10/21 10:51:28;;;;;;;13.32;5.70;;;15.00;99.90;;;;;;5105658;28;20047;-71
2022/10/21 10:54:08;;;;;;;8.68;5.03;;;15.00;99.90;;;;;;5086840;28;20052;-71
2022/10/21 10:56:43;;;;;;;13.10;5.57;;;15.00;99.90;;;;;;5104747;28;20052;-72
2022/10/21 10:59:15;;;;;;;8.35;5.05;;;15.10;99.90;;;;;;5090384;28;20047;-72
2022/10/21 11:01:52;;;;;;;15.63;5.60;;;15.10;99.90;;;;;;5090401;28;20048;-71
2022/10/21 11:04:59;;;;;;;10.82;5.60;;;15.10;99.90;;;;;;5092614;28;20079;-71
2022/10/21 11:07:32;;;;;;;11.18;6.05;;;15.10;99.90;;;;;;5093381;28;20362;-71
2022/10/21 11:10:07;;;;;;;10.80;5.65;;;15.20;99.90;;;;;;5107805;28;20039;-72
2022/10/21 11:12:33;;;;;;;10.98;5.50;;;15.20;99.90;;;;;;5098770;28;20386;-72
2022/10/21 11:14:59;;;;;;;10.13;5.05;;;15.20;99.90;;;;;;5099136;28;20036;-71
2022/10/21 11:17:40;;;;;;;10.82;5.07;;;15.20;99.90;;;;;;5108205;28;20035;-71
2022/10/21 11:20:24;;;;;;;7.65;4.38;;;15.20;99.90;;;;;;5076580;28;20080;-72
2022/10/21 11:23:09;;;;;;;10.23;5.00;;;15.30;99.90;;;;;;5105932;28;20119;-72
2022/10/21 11:26:01;;;;;;;11.30;5.82;;;15.30;99.90;;;;;;5106552;28;20044;-72
2022/10/21 11:28:46;;;;;;;8.07;4.60;;;15.30;99.90;;;;;;5095103;28;20116;-72
2022/10/21 11:31:34;;;;;;;12.45;5.45;;;15.40;99.90;;;;;;5108060;28;20088;-71
2022/10/21 11:34:17;;;;;;;12.27;5.07;;;15.40;99.90;;;;;;5085910;28;20071;-72
2022/10/21 11:37:25;;;;;;;10.98;4.72;;;15.40;99.90;;;;;;5097101;28;20126;-72
2022/10/21 11:39:57;;;;;;;9.85;4.47;;;15.40;99.90;;;;;;4986931;28;20042;-71
2022/10/21 11:42:39;;;;;;;10.73;4.93;;;15.50;99.90;;;;;;5072872;28;20370;-71
2022/10/21 11:45:11;;;;;;;8.75;4.25;;;15.50;99.90;;;;;;5086048;28;20187;-72
2022/10/21 11:47:49;;;;;;;9.10;4.90;;;15.60;99.90;;;;;;5095816;28;20826;-72
2022/10/21 11:50:21;;;;;;;8.68;4.50;;;15.60;99.90;;;;;;5093344;28;20402;-71
2022/10/21 11:52:56;;;;;;;7.93;4.25;;;15.60;99.90;;;;;;5104330;28;20118;-72
2022/10/21 11:55:37;;;;;;;11.15;4.95;;;15.70;99.90;;;;;;5098900;28;20558;-71
2022/10/21 11:58:09;;;;;;;11.20;4.70;;;15.70;99.90;;;;;;5084991;28;20043;-72
2022/10/21 12:01:02;;;;;;;12.02;4.65;;;15.70;99.90;;;;;;5105244;28;20407;-71
2022/10/21 12:03:47;;;;;;;7.28;4.55;;;15.70;99.90;;;;;;5097622;28;20043;-72
2022/10/21 12:06:40;;;;;;;11.77;5.43;;;15.70;99.90;;;;;;5090103;28;20450;-72
2022/10/21 12:09:24;;;;;;;7.78;3.92;;;15.70;99.90;;;;;;5090083;28;20131;-72
2022/10/21 12:12:11;;;;;;;9.98;4.22;;;15.80;99.90;;;;;;5101646;28;20386;-72
2022/10/21 12:14:42;;;;;;;11.15;4.60;;;15.80;99.90;;;;;;5092974;28;20063;-71
2022/10/21 12:17:17;;;;;;;9.68;4.60;;;15.80;99.90;;;;;;5090609;28;20071;-72
2022/10/21 12:19:51;;;;;;;9.13;4.53;;;15.80;99.90;;;;;;5096929;28;20153;-71
2022/10/21 12:22:17;;;;;;;6.22;3.70;;;15.70;99.90;;;;;;5097866;28;20123;-72
2022/10/21 12:24:55;;;;;;;8.05;3.67;;;15.80;99.90;;;;;;5102916;28;20592;-72
2022/10/21 12:27:38;;;;;;;14.00;3.75;;;15.80;99.90;;;;;;5089319;28;20114;-71
2022/10/21 12:30:19;;;;;;;10.60;4.07;;;15.80;99.90;;;;;;5067892;28;20048;-72
2022/10/21 12:33:11;;;;;;;7.60;3.55;;;15.80;99.90;;;;;;5094631;28;20595;-72
2022/10/21 12:35:54;;;;;;;7.30;3.75;;;15.80;99.90;;;;;;5071292;28;20051;-72
2022/10/21 12:38:42;;;;;;;8.68;3.58;;;15.80;99.90;;;;;;5092810;28;20123;-71
2022/10/21 12:41:32;;;;;;;7.72;3.95;;;15.80;99.90;;;;;;5105883;28;20048;-72
2022/10/21 12:44:01;;;;;;;8.38;3.85;;;15.90;99.90;;;;;;5086201;28;20052;-71
2022/10/21 12:46:44;;;;;;;7.10;3.58;;;15.90;99.90;;;;;;5084676;28;20051;-72
2022/10/21 12:49:20;;;;;;;8.80;3.20;;;15.90;99.90;;;;;;5090664;28;20059;-72
2022/10/21 12:51:53;;;;;;;7.53;3.67;;;15.90;99.90;;;;;;5105778;28;20036;-72
2022/10/21 12:54:29;;;;;;;13.88;4.53;;;15.90;99.90;;;;;;5103974;28;20421;-72
2022/10/21 12:57:05;;;;;;;6.93;3.38;;;16.10;99.90;;;;;;5090433;28;20054;-72
2022/10/21 12:59:38;;;;;;;9.13;3.72;;;16.20;99.90;;;;;;5091776;28;20044;-72
2022/10/21 13:02:04;;;;;;;10.32;3.58;;;16.40;99.90;;;;;;5080481;28;20051;-71